createdAt,value
2023-05-06T00:04:41.052Z,101169.44
2023-05-06T00:10:27.913Z,101162.00
2023-05-06T00:16:17.077Z,101167.22
2023-05-06T00:22:03.948Z,101161.81
2023-05-06T00:27:55.436Z,101169.28
2023-05-06T00:33:45.334Z,101162.50
2023-05-06T00:39:35.526Z,101159.84
2023-05-06T00:45:22.683Z,101167.41
2023-05-06T00:51:12.045Z,101153.75
2023-05-06T00:57:00.209Z,101143.53
2023-05-06T01:02:49.967Z,101147.19
2023-05-06T01:08:42.900Z,101137.13
2023-05-06T01:14:40.485Z,101139.34
2023-05-06T01:20:27.944Z,101140.34
2023-05-06T01:26:18.202Z,101133.97
2023-05-06T01:32:23.568Z,101125.88
2023-05-06T01:38:36.198Z,101134.38
2023-05-06T01:44:35.086Z,101123.94
2023-05-06T01:50:26.531Z,101131.59
2023-05-06T01:56:14.070Z,101128.63
2023-05-06T02:02:04.107Z,101123.66
2023-05-06T02:07:53.396Z,101116.38
2023-05-06T02:13:42.140Z,101115.72
2023-05-06T02:19:32.386Z,101111.25
2023-05-06T02:25:25.547Z,101113.59
2023-05-06T02:31:25.776Z,101120.44
2023-05-06T02:37:22.753Z,101123.00
2023-05-06T02:43:09.995Z,101115.44
2023-05-06T02:48:58.577Z,101113.50
2023-05-06T02:54:45.975Z,101110.19
2023-05-06T03:00:34.346Z,101100.75
2023-05-06T03:06:23.912Z,101099.84
2023-05-06T03:12:13.785Z,101093.56
2023-05-06T03:18:04.682Z,101104.22
2023-05-06T03:23:52.775Z,101093.56
2023-05-06T03:29:49.535Z,101082.94
2023-05-06T03:35:40.901Z,101088.84
2023-05-06T03:41:31.745Z,101078.72
2023-05-06T03:47:38.287Z,101082.84
2023-05-06T03:53:34.434Z,101079.66
2023-05-06T03:59:26.701Z,101087.00
2023-05-06T04:05:20.988Z,101095.63
2023-05-06T04:11:15.698Z,101082.28
2023-05-06T04:17:08.628Z,101079.09
2023-05-06T04:22:57.733Z,101069.81
2023-05-06T04:28:45.802Z,101076.28
2023-05-06T04:34:37.305Z,101077.59
2023-05-06T04:40:31.906Z,101070.59
2023-05-06T04:46:25.179Z,101078.13
2023-05-06T04:52:26.425Z,101083.72
2023-05-06T05:04:24.257Z,101093.56
2023-05-06T05:10:22.562Z,101097.69
2023-05-06T05:16:18.088Z,101104.38
2023-05-06T05:22:14.621Z,101108.13
2023-05-06T05:28:04.680Z,101113.84
2023-05-06T05:33:58.167Z,101116.72
2023-05-06T05:39:49.988Z,101114.28
2023-05-06T05:45:38.700Z,101116.53
2023-05-06T05:51:27.180Z,101109.53
2023-05-06T05:57:19.672Z,101116.84
2023-05-06T06:03:08.588Z,101114.19
2023-05-06T06:08:57.868Z,101118.41
2023-05-06T06:14:55.789Z,101115.94
2023-05-06T06:20:45.392Z,101116.63
2023-05-06T06:26:36.406Z,101119.13
2023-05-06T06:32:26.630Z,101118.94
2023-05-06T06:38:14.993Z,101123.56
2023-05-06T06:44:11.060Z,101136.28
2023-05-06T06:49:58.497Z,101128.00
2023-05-06T06:55:47.018Z,101140.22
2023-05-06T07:01:34.173Z,101134.91
2023-05-06T07:07:21.418Z,101134.44
2023-05-06T07:13:16.262Z,101130.47
2023-05-06T07:19:06.815Z,101123.03
2023-05-06T07:24:53.983Z,101122.88
2023-05-06T07:30:41.315Z,101131.50
2023-05-06T07:36:31.118Z,101133.22
2023-05-06T07:42:18.716Z,101138.19
2023-05-06T07:48:06.320Z,101137.06
2023-05-06T07:53:53.189Z,101144.38
2023-05-06T07:59:41.910Z,101151.72
2023-05-06T08:05:29.094Z,101157.88
2023-05-06T08:11:18.763Z,101166.19
2023-05-06T08:17:06.619Z,101169.34
2023-05-06T08:22:55.578Z,101168.69
2023-05-06T08:28:43.372Z,101171.91
2023-05-06T08:34:32.141Z,101158.09
2023-05-06T08:40:21.025Z,101174.88
2023-05-06T08:46:08.576Z,101158.75
2023-05-06T08:52:12.086Z,101158.91
2023-05-06T08:58:08.438Z,101162.78
2023-05-06T09:04:01.922Z,101140.94
2023-05-06T09:09:49.562Z,101155.16
2023-05-06T09:15:44.094Z,101147.25
2023-05-06T09:21:40.230Z,101144.06
2023-05-06T09:27:35.307Z,101139.41
2023-05-06T09:33:22.293Z,101148.53
2023-05-06T09:39:11.992Z,101139.69
2023-05-06T09:45:02.639Z,101146.13
2023-05-06T09:50:50.936Z,101131.22
2023-05-06T09:56:41.407Z,101128.53
2023-05-06T10:02:28.877Z,101126.84
2023-05-06T10:08:20.863Z,101135.19
2023-05-06T10:14:08.308Z,101136.91
2023-05-06T10:20:00.620Z,101129.78
2023-05-06T10:25:52.415Z,101120.34
2023-05-06T10:31:45.947Z,101125.00
2023-05-06T10:37:37.167Z,101128.78
2023-05-06T10:43:26.341Z,101111.56
2023-05-06T10:49:24.016Z,101111.56
2023-05-06T10:55:40.193Z,101106.66
2023-05-06T11:01:43.875Z,101110.56
2023-05-06T11:14:24.585Z,101101.97
2023-05-06T11:20:25.960Z,101105.06
2023-05-06T11:26:16.845Z,101113.88
2023-05-06T11:32:05.684Z,101113.69
2023-05-06T11:37:52.847Z,101113.50
2023-05-06T11:43:52.518Z,101115.34
2023-05-06T11:49:42.872Z,101105.91
2023-05-06T11:55:35.261Z,101109.13
2023-05-06T12:01:22.079Z,101100.63
2023-05-06T12:07:12.334Z,101105.50
2023-05-06T12:12:59.474Z,101092.09
2023-05-06T12:18:46.366Z,101092.97
2023-05-06T12:24:39.183Z,101098.25
2023-05-06T12:30:37.296Z,101093.06
2023-05-06T12:36:26.288Z,101096.88
2023-05-06T12:42:28.256Z,101095.06
2023-05-06T12:48:17.025Z,101099.06
2023-05-06T12:54:33.023Z,101090.66
2023-05-06T13:00:21.832Z,101091.75
2023-05-06T13:06:17.948Z,101104.19
2023-05-06T13:12:06.558Z,101114.38
2023-05-06T13:17:53.352Z,101113.38
2023-05-06T13:23:47.691Z,101113.34
2023-05-06T13:29:35.303Z,101104.25
2023-05-06T13:35:23.743Z,101106.22
2023-05-06T13:41:10.771Z,101103.94
2023-05-06T13:46:57.642Z,101100.66
2023-05-06T13:52:44.861Z,101096.22
2023-05-06T13:58:34.493Z,101096.44
2023-05-06T14:04:21.918Z,101087.19
2023-05-06T14:10:10.476Z,101095.50
2023-05-06T14:15:57.949Z,101086.69
2023-05-06T14:21:44.950Z,101080.38
2023-05-06T14:27:33.492Z,101081.47
2023-05-06T14:33:20.434Z,101073.84
2023-05-06T14:39:11.286Z,101070.63
2023-05-06T14:45:00.193Z,101061.09
2023-05-06T14:50:47.008Z,101055.00
2023-05-06T14:56:33.933Z,101045.78
2023-05-06T15:02:22.260Z,101043.03
2023-05-06T15:08:16.468Z,101054.44
2023-05-06T15:14:09.991Z,101035.91
2023-05-06T15:19:58.674Z,101049.25
2023-05-06T15:25:45.489Z,101048.84
2023-05-06T15:31:39.209Z,101045.88
2023-05-06T15:37:29.540Z,101040.44
2023-05-06T15:43:22.750Z,101042.41
2023-05-06T15:49:46.656Z,101035.50
2023-05-06T15:55:19.593Z,101043.78
2023-05-06T16:01:09.964Z,101046.44
2023-05-06T16:06:57.694Z,101041.44
2023-05-06T16:12:47.930Z,101046.19
2023-05-06T16:18:35.173Z,101047.25
2023-05-06T16:24:23.021Z,101040.53
2023-05-06T16:30:12.210Z,101033.22
2023-05-06T16:36:00.144Z,101034.63
2023-05-06T16:41:48.838Z,101037.47
2023-05-06T16:47:39.108Z,101034.72
2023-05-06T16:53:28.193Z,101029.81
2023-05-06T16:59:19.439Z,101034.22
2023-05-06T17:05:09.848Z,101023.34
2023-05-06T17:10:56.976Z,101019.50
2023-05-06T17:16:47.765Z,101022.72
2023-05-06T17:22:41.373Z,101003.97
2023-05-06T17:28:31.876Z,101013.91
2023-05-06T17:34:26.779Z,101006.50
2023-05-06T17:40:23.218Z,101016.53
2023-05-06T17:46:14.020Z,101013.84
2023-05-06T17:52:12.427Z,101002.34
2023-05-06T17:58:00.677Z,101015.69
2023-05-06T18:03:59.025Z,101003.91
2023-05-06T18:09:52.323Z,101007.69
2023-05-06T18:15:41.532Z,101006.25
2023-05-06T18:21:31.504Z,101004.06
2023-05-06T18:27:19.697Z,101009.50
2023-05-06T18:33:06.866Z,101008.66
2023-05-06T18:38:53.786Z,101012.34
2023-05-06T18:44:43.331Z,101014.75
2023-05-06T18:50:33.085Z,101017.41
2023-05-06T18:56:20.187Z,101014.75
2023-05-06T19:02:08.054Z,101027.75
2023-05-06T19:07:54.894Z,101025.78
2023-05-06T19:13:44.131Z,101020.25
2023-05-06T19:19:34.491Z,101017.00
2023-05-06T19:25:22.977Z,101021.53
2023-05-06T19:31:12.445Z,101016.00
2023-05-06T19:36:59.485Z,101022.81
2023-05-06T19:42:46.848Z,101029.50
2023-05-06T19:48:35.583Z,101026.56
2023-05-06T19:54:27.022Z,101031.31
2023-05-06T20:00:14.805Z,101040.41
2023-05-06T20:06:01.996Z,101049.28
2023-05-06T20:11:50.961Z,101040.41
2023-05-06T20:17:38.129Z,101040.91
2023-05-06T20:23:25.075Z,101038.41
2023-05-06T20:29:11.959Z,101038.75
2023-05-06T20:34:59.742Z,101042.78
2023-05-06T20:40:50.610Z,101042.19
2023-05-06T20:46:39.929Z,101054.41
2023-05-06T20:52:28.006Z,101051.38
2023-05-06T20:58:15.321Z,101074.78
2023-05-06T21:04:04.822Z,101069.16
2023-05-06T21:09:52.062Z,101085.06
2023-05-06T21:15:40.619Z,101097.31
2023-05-06T21:21:37.935Z,101090.47
2023-05-06T21:27:26.709Z,101086.94
2023-05-06T21:33:13.650Z,101079.94
2023-05-06T21:39:21.096Z,101087.69
2023-05-06T21:45:08.348Z,101087.22
2023-05-06T21:50:58.321Z,101086.03
2023-05-06T21:56:45.398Z,101085.06
2023-05-06T22:02:36.340Z,101091.06
2023-05-06T22:08:28.204Z,101099.06
2023-05-06T22:14:16.163Z,101095.53
2023-05-06T22:20:04.544Z,101098.69
2023-05-06T22:25:52.277Z,101094.53
2023-05-06T22:31:39.262Z,101098.56
2023-05-06T22:37:26.198Z,101113.09
2023-05-06T22:43:14.986Z,101105.50
2023-05-06T22:49:01.814Z,101115.00
2023-05-06T22:54:48.820Z,101110.34
2023-05-06T23:00:41.372Z,101122.19
2023-05-06T23:06:29.388Z,101117.03
2023-05-06T23:12:18.861Z,101120.91
2023-05-06T23:18:08.192Z,101114.69
2023-05-06T23:23:58.875Z,101114.66
2023-05-06T23:29:47.680Z,101123.56
2023-05-06T23:35:34.537Z,101119.31
2023-05-06T23:41:23.626Z,101133.38
2023-05-06T23:47:10.449Z,101139.94
2023-05-06T23:52:57.704Z,101124.75
2023-05-06T23:58:46.377Z,101118.91
